Time;durP1;ratioP1;P1;durP2;ratioP2;P2;SDS_P1;SDS_P2;PMS_P1;PMS_P2;Temp;Humidity;BMP_temperature;BMP_pressure;BME280_temperature;BME280_humidity;BME280_pressure;Samples;Min_cycle;Max_cycle;Signal;HPM_P1;HPM_P2
2023/02/16 00:01:17;;;;;;;36.10;27.73;;;1.40;99.90;;;;;;5019902;28;20431;-45
2023/02/16 00:03:43;;;;;;;38.45;26.35;;;1.40;99.90;;;;;;5019340;28;20201;-43
2023/02/16 00:06:14;;;;;;;39.07;26.77;;;1.40;99.90;;;;;;5018878;28;20205;-46
2023/02/16 00:08:45;;;;;;;38.08;26.60;;;1.40;99.90;;;;;;5018945;28;20415;-43
2023/02/16 00:14:11;;;;;;;38.50;26.85;;;1.40;99.90;;;;;;5019951;28;20224;-46
2023/02/16 00:16:37;;;;;;;35.88;25.77;;;1.50;99.90;;;;;;5018630;28;20189;-45
2023/02/16 00:19:26;;;;;;;37.80;26.43;;;1.40;99.90;;;;;;5019611;28;20223;-44
2023/02/16 00:21:58;;;;;;;42.88;26.63;;;1.40;99.90;;;;;;5019034;28;20781;-43
2023/02/16 00:24:26;;;;;;;40.75;26.73;;;1.40;99.90;;;;;;5019740;28;20586;-46
2023/02/16 00:26:52;;;;;;;32.88;25.15;;;1.40;99.90;;;;;;5018867;28;20583;-44
2023/02/16 00:29:25;;;;;;;43.08;26.73;;;1.40;99.90;;;;;;5019585;28;20189;-44
2023/02/16 00:31:53;;;;;;;38.95;27.83;;;1.30;99.90;;;;;;5019630;28;20553;-43
2023/02/16 00:34:27;;;;;;;38.72;26.27;;;1.30;99.90;;;;;;5019127;28;20577;-44
2023/02/16 00:36:53;;;;;;;40.67;28.88;;;1.30;99.90;;;;;;5018397;28;20546;-45
2023/02/16 00:39:18;;;;;;;39.53;26.23;;;1.30;99.90;;;;;;5018893;28;20666;-45
2023/02/16 00:41:50;;;;;;;41.17;27.50;;;1.30;99.90;;;;;;5019451;28;20184;-45
2023/02/16 00:44:39;;;;;;;41.00;27.52;;;1.30;99.90;;;;;;5019361;28;20193;-47
2023/02/16 00:47:20;;;;;;;36.92;26.48;;;1.30;99.90;;;;;;5018684;28;20220;-43
2023/02/16 00:49:47;;;;;;;40.78;27.90;;;1.30;99.90;;;;;;5019103;28;20596;-47
2023/02/16 00:52:28;;;;;;;34.92;26.98;;;1.30;99.90;;;;;;5017815;28;20186;-44
2023/02/16 00:54:54;;;;;;;39.97;27.40;;;1.30;99.90;;;;;;5018641;28;20192;-43
2023/02/16 00:57:21;;;;;;;36.78;25.80;;;1.30;99.90;;;;;;5019105;28;20280;-43
2023/02/16 00:59:48;;;;;;;40.95;26.92;;;1.20;99.90;;;;;;5018737;28;20192;-48
2023/02/16 01:02:14;;;;;;;38.00;26.98;;;1.20;99.90;;;;;;5018942;28;20391;-44
2023/02/16 01:04:39;;;;;;;38.17;27.27;;;1.20;99.90;;;;;;5019117;28;20197;-44
2023/02/16 01:12:40;;;;;;;34.22;25.92;;;1.20;99.90;;;;;;5018684;28;20388;-44
2023/02/16 01:15:12;;;;;;;35.40;26.30;;;1.10;99.90;;;;;;5022101;28;20188;-47
2023/02/16 01:17:37;;;;;;;35.78;26.75;;;1.10;99.90;;;;;;5022535;28;20308;-45
2023/02/16 01:20:09;;;;;;;36.47;26.83;;;1.10;99.90;;;;;;5021673;28;20300;-48
2023/02/16 01:22:34;;;;;;;36.25;26.30;;;1.10;99.90;;;;;;5022797;28;20273;-44
2023/02/16 01:25:00;;;;;;;38.47;26.10;;;1.10;99.90;;;;;;5021962;28;20201;-45
2023/02/16 01:27:26;;;;;;;37.43;25.80;;;1.10;99.90;;;;;;5022195;28;20208;-45
2023/02/16 01:29:51;;;;;;;37.90;27.20;;;1.10;99.90;;;;;;5021457;28;20897;-45
2023/02/16 01:32:17;;;;;;;37.10;26.37;;;1.10;99.90;;;;;;5022164;28;20261;-47
2023/02/16 01:34:42;;;;;;;37.17;26.27;;;1.10;99.90;;;;;;5022182;28;20246;-44
2023/02/16 01:37:15;;;;;;;38.20;26.70;;;1.10;99.90;;;;;;5021893;28;20200;-45
2023/02/16 01:39:40;;;;;;;36.40;26.70;;;1.20;99.90;;;;;;5020375;28;20204;-45
2023/02/16 01:42:30;;;;;;;34.40;25.23;;;1.20;99.90;;;;;;5021639;28;20188;-46
2023/02/16 01:45:04;;;;;;;36.88;26.40;;;1.10;99.90;;;;;;5021387;28;20208;-43
2023/02/16 01:47:48;;;;;;;37.22;27.13;;;1.10;99.90;;;;;;5021847;28;20213;-44
2023/02/16 01:50:25;;;;;;;37.90;27.05;;;1.10;99.90;;;;;;5021246;28;20536;-45
2023/02/16 01:53:11;;;;;;;36.00;26.80;;;1.10;99.90;;;;;;5021758;28;20179;-44
2023/02/16 01:55:41;;;;;;;35.65;27.30;;;1.00;99.90;;;;;;5021397;28;20184;-42
2023/02/16 01:58:25;;;;;;;35.42;25.40;;;1.10;99.90;;;;;;5021598;28;20177;-43
2023/02/16 02:00:51;;;;;;;34.05;25.65;;;1.10;99.90;;;;;;5021523;28;20203;-46
2023/02/16 02:06:17;;;;;;;32.72;23.55;;;1.10;99.90;;;;;;5021106;28;20201;-43
2023/02/16 02:09:04;;;;;;;35.70;24.55;;;1.10;99.90;;;;;;5021346;28;20191;-47
2023/02/16 02:11:45;;;;;;;31.10;23.45;;;1.10;99.90;;;;;;5021470;28;20319;-43
2023/02/16 02:14:19;;;;;;;34.03;24.98;;;1.10;99.90;;;;;;5021490;28;20730;-41
2023/02/16 02:16:55;;;;;;;33.85;25.20;;;1.10;99.90;;;;;;5021274;28;20327;-46
2023/02/16 02:19:21;;;;;;;31.60;24.55;;;1.10;99.90;;;;;;5021130;28;20207;-45
2023/02/16 02:25:57;;;;;;;33.17;24.02;;;1.10;99.90;;;;;;5007367;28;20204;-43
2023/02/16 02:28:46;;;;;;;32.55;24.50;;;1.00;99.90;;;;;;5020805;28;20599;-44
2023/02/16 02:31:23;;;;;;;30.50;24.05;;;1.10;99.90;;;;;;5020608;28;20699;-45
2023/02/16 02:34:19;;;;;;;31.75;24.15;;;1.00;99.90;;;;;;5021065;28;20180;-47
2023/02/16 02:36:58;;;;;;;31.65;23.67;;;1.00;99.90;;;;;;5021171;28;20201;-45
2023/02/16 02:39:44;;;;;;;29.27;23.65;;;1.00;99.90;;;;;;5020759;28;20311;-47
2023/02/16 02:42:28;;;;;;;31.08;23.98;;;1.00;99.90;;;;;;5020529;28;20259;-45
2023/02/16 02:44:59;;;;;;;31.17;23.73;;;1.00;99.90;;;;;;5020537;28;20979;-43
2023/02/16 02:47:40;;;;;;;32.20;23.75;;;1.00;99.90;;;;;;5020567;28;20220;-45
2023/02/16 02:50:31;;;;;;;32.30;23.65;;;1.00;99.90;;;;;;5018846;28;20191;-46
2023/02/16 02:53:00;;;;;;;29.30;23.92;;;1.00;99.90;;;;;;5020642;28;21034;-46
2023/02/16 03:00:59;;;;;;;34.55;23.67;;;0.90;99.90;;;;;;5020222;28;20198;-47
2023/02/16 03:03:29;;;;;;;32.80;24.00;;;0.90;99.90;;;;;;5020702;28;20193;-43
2023/02/16 03:06:06;;;;;;;35.10;23.95;;;0.90;99.90;;;;;;5020270;28;20173;-43
2023/02/16 03:08:36;;;;;;;28.88;23.67;;;0.90;99.90;;;;;;5020294;28;20189;-44
2023/02/16 03:14:23;;;;;;;30.20;24.02;;;0.80;99.90;;;;;;5019692;28;20191;-44
2023/02/16 03:30:51;;;;;;;31.10;24.33;;;0.80;99.90;;;;;;5020304;28;20199;-46
2023/02/16 03:33:17;;;;;;;31.15;23.73;;;0.80;99.90;;;;;;5018246;28;20508;-43
2023/02/16 03:35:45;;;;;;;28.58;23.75;;;0.80;99.90;;;;;;5019554;28;20650;-46
2023/02/16 03:38:11;;;;;;;31.80;24.15;;;0.80;99.90;;;;;;5019535;28;20195;-45
2023/02/16 03:40:39;;;;;;;30.60;23.42;;;0.70;99.90;;;;;;5018383;28;20195;-44
2023/02/16 03:43:07;;;;;;;31.67;24.60;;;0.80;99.90;;;;;;5018887;28;20183;-42
2023/02/16 03:45:36;;;;;;;35.17;25.75;;;0.70;99.90;;;;;;5019533;28;20903;-43
2023/02/16 03:48:02;;;;;;;35.03;24.60;;;0.70;99.90;;;;;;5019310;28;20606;-45
2023/02/16 03:50:28;;;;;;;37.38;26.30;;;0.70;99.90;;;;;;5019583;28;20186;-43
2023/02/16 03:53:05;;;;;;;33.22;24.67;;;0.70;99.90;;;;;;5019833;28;20639;-42
2023/02/16 03:55:43;;;;;;;33.25;23.55;;;0.70;99.90;;;;;;5019553;28;20209;-46
2023/02/16 03:58:12;;;;;;;32.17;23.88;;;0.70;99.90;;;;;;5019389;28;20187;-46
2023/02/16 04:00:38;;;;;;;30.17;25.05;;;0.70;99.90;;;;;;5019307;28;20193;-43
2023/02/16 04:03:04;;;;;;;31.20;22.33;;;0.70;99.90;;;;;;5019687;28;20184;-47
2023/02/16 04:05:30;;;;;;;38.13;23.85;;;0.70;99.90;;;;;;5019172;28;20199;-43
2023/02/16 04:07:56;;;;;;;34.30;24.80;;;0.70;99.90;;;;;;5019493;28;20207;-43
2023/02/16 04:10:22;;;;;;;38.53;25.13;;;0.70;99.90;;;;;;5019768;28;20423;-47
2023/02/16 04:12:48;;;;;;;36.17;24.88;;;0.70;99.90;;;;;;5018845;28;20575;-46
2023/02/16 04:15:26;;;;;;;38.17;26.27;;;0.70;99.90;;;;;;5018588;28;20282;-42
2023/02/16 04:17:52;;;;;;;36.70;25.05;;;0.60;99.90;;;;;;5019460;28;20422;-42
2023/02/16 04:20:21;;;;;;;33.00;24.20;;;0.70;99.90;;;;;;5019401;28;20530;-44
2023/02/16 04:22:47;;;;;;;35.00;25.00;;;0.70;99.90;;;;;;5019277;28;20188;-45
2023/02/16 04:25:14;;;;;;;34.15;24.50;;;0.60;99.90;;;;;;5019248;28;20246;-47
2023/02/16 04:27:40;;;;;;;36.42;24.50;;;0.60;99.90;;;;;;5019343;28;20560;-48
2023/02/16 04:30:09;;;;;;;33.92;24.23;;;0.60;99.90;;;;;;5019030;28;20186;-44
2023/02/16 04:32:35;;;;;;;36.90;24.08;;;0.60;99.90;;;;;;5019076;28;20327;-44
2023/02/16 04:35:01;;;;;;;34.20;23.90;;;0.60;99.90;;;;;;5018097;28;20718;-43
2023/02/16 04:37:26;;;;;;;38.53;26.77;;;0.60;99.90;;;;;;5018326;28;20442;-45
2023/02/16 04:39:52;;;;;;;34.20;25.00;;;0.60;99.90;;;;;;5019281;28;20357;-43
2023/02/16 04:42:17;;;;;;;30.57;24.33;;;0.60;99.90;;;;;;5019088;28;20867;-46
2023/02/16 04:44:43;;;;;;;33.90;24.47;;;0.60;99.90;;;;;;5019064;28;20194;-43
2023/02/16 04:47:09;;;;;;;35.83;23.67;;;0.60;99.90;;;;;;5019087;28;20234;-45
2023/02/16 04:49:34;;;;;;;37.03;25.80;;;0.60;99.90;;;;;;5021371;28;20183;-49
2023/02/16 04:52:02;;;;;;;32.00;24.60;;;0.60;99.90;;;;;;5023034;28;20179;-43
2023/02/16 04:54:28;;;;;;;36.85;24.10;;;0.60;99.90;;;;;;5022935;28;20181;-43
2023/02/16 04:56:54;;;;;;;35.88;25.35;;;0.50;99.90;;;;;;5022420;28;20278;-43
2023/02/16 04:59:20;;;;;;;37.93;23.77;;;0.50;99.90;;;;;;5022493;28;20272;-43
2023/02/16 05:01:45;;;;;;;31.03;23.13;;;0.50;99.90;;;;;;5022418;28;20207;-46
2023/02/16 05:04:11;;;;;;;36.87;24.43;;;0.50;99.90;;;;;;5022152;28;20198;-43
2023/02/16 05:06:38;;;;;;;40.37;25.00;;;0.50;99.90;;;;;;5022657;28;20678;-44
2023/02/16 05:09:04;;;;;;;35.08;24.65;;;0.40;99.90;;;;;;5022440;28;20706;-44
2023/02/16 05:14:41;;;;;;;33.60;23.98;;;0.40;99.90;;;;;;5022473;28;20299;-43
2023/02/16 05:17:13;;;;;;;31.02;21.73;;;0.40;99.90;;;;;;5022402;28;20852;-45
2023/02/16 05:19:40;;;;;;;40.05;25.25;;;0.40;99.90;;;;;;5022641;28;20460;-45
2023/02/16 05:22:06;;;;;;;31.60;22.60;;;0.40;99.90;;;;;;5021567;28;20221;-43
2023/02/16 05:24:33;;;;;;;36.50;23.73;;;0.50;99.90;;;;;;5021419;28;20215;-44
2023/02/16 05:26:59;;;;;;;36.45;23.77;;;0.50;99.90;;;;;;5021796;28;20218;-47
2023/02/16 05:29:25;;;;;;;37.63;24.48;;;0.50;99.90;;;;;;5022294;28;20230;-46
2023/02/16 05:31:51;;;;;;;37.40;24.40;;;0.50;99.90;;;;;;5020524;28;20618;-46
2023/02/16 05:34:17;;;;;;;36.80;25.53;;;0.60;99.90;;;;;;5022455;28;20741;-42
2023/02/16 05:36:42;;;;;;;33.57;23.77;;;0.60;99.90;;;;;;5022915;28;20811;-43
2023/02/16 05:39:08;;;;;;;37.17;24.10;;;0.60;99.90;;;;;;5023206;28;20269;-42
2023/02/16 05:41:34;;;;;;;36.87;25.57;;;0.50;99.90;;;;;;5021867;28;20605;-42
2023/02/16 05:44:01;;;;;;;37.40;25.47;;;0.50;99.90;;;;;;5022722;28;20520;-43
2023/02/16 05:46:28;;;;;;;37.05;24.65;;;0.50;99.90;;;;;;5023132;28;20198;-42
2023/02/16 05:48:54;;;;;;;38.90;24.42;;;0.50;99.90;;;;;;5023120;28;20214;-43
2023/02/16 05:51:20;;;;;;;36.10;25.00;;;0.50;99.90;;;;;;5021714;28;20187;-43
2023/02/16 05:53:46;;;;;;;39.25;23.70;;;0.50;99.90;;;;;;5021749;28;20774;-44
2023/02/16 05:56:12;;;;;;;32.50;23.27;;;0.50;99.90;;;;;;5021920;28;20722;-43
2023/02/16 05:58:38;;;;;;;35.78;24.48;;;0.50;99.90;;;;;;5021457;28;20179;-46
2023/02/16 06:01:04;;;;;;;37.13;24.97;;;0.50;99.90;;;;;;5021063;28;20192;-43
2023/02/16 06:03:30;;;;;;;34.38;24.35;;;0.50;99.90;;;;;;5019951;28;20472;-45
2023/02/16 06:05:59;;;;;;;40.58;26.15;;;0.50;99.90;;;;;;5021537;28;20211;-45
2023/02/16 06:08:25;;;;;;;38.67;24.17;;;0.40;99.90;;;;;;5021910;28;20214;-44
2023/02/16 06:10:52;;;;;;;36.63;25.37;;;0.40;99.90;;;;;;5020037;28;20184;-43
2023/02/16 06:13:18;;;;;;;40.58;25.38;;;0.40;99.90;;;;;;5021342;28;20837;-45
2023/02/16 06:15:44;;;;;;;39.25;25.52;;;0.40;99.90;;;;;;5021382;28;20275;-44
2023/02/16 06:18:10;;;;;;;40.33;24.60;;;0.40;99.90;;;;;;5021277;28;20184;-43
2023/02/16 06:20:37;;;;;;;38.67;24.80;;;0.40;99.90;;;;;;5021042;28;20477;-45
2023/02/16 06:23:02;;;;;;;35.30;24.40;;;0.40;99.90;;;;;;5020147;28;20543;-44
2023/02/16 06:25:28;;;;;;;40.80;25.53;;;0.40;99.90;;;;;;5020905;28;20188;-43
2023/02/16 06:27:55;;;;;;;36.50;25.13;;;0.50;99.90;;;;;;5020982;28;20269;-42
2023/02/16 06:30:22;;;;;;;36.13;25.02;;;0.50;99.90;;;;;;5021130;28;20547;-42
2023/02/16 06:32:47;;;;;;;41.28;26.08;;;0.50;99.90;;;;;;5019591;28;20679;-44
2023/02/16 06:35:13;;;;;;;37.20;24.70;;;0.50;99.90;;;;;;5020840;28;20192;-44
2023/02/16 06:37:38;;;;;;;37.87;24.93;;;0.50;99.90;;;;;;5020823;28;20382;-48
2023/02/16 06:40:05;;;;;;;38.37;25.00;;;0.60;99.90;;;;;;5020975;28;20194;-44
2023/02/16 06:42:31;;;;;;;41.05;26.00;;;0.60;99.90;;;;;;5021115;28;20434;-43
2023/02/16 06:44:56;;;;;;;40.60;26.37;;;0.60;99.90;;;;;;5020893;28;20639;-43
2023/02/16 06:47:22;;;;;;;36.73;25.70;;;0.60;99.90;;;;;;5018817;28;20225;-44
2023/02/16 06:49:47;;;;;;;40.40;26.33;;;0.60;99.90;;;;;;5019459;28;20642;-44
2023/02/16 06:52:16;;;;;;;38.00;25.83;;;0.60;99.90;;;;;;5017893;28;20227;-43
2023/02/16 06:54:41;;;;;;;37.38;25.60;;;0.60;99.90;;;;;;5020305;28;20201;-44
2023/02/16 06:57:07;;;;;;;41.97;25.50;;;0.60;99.90;;;;;;5020547;28;20253;-41
2023/02/16 06:59:32;;;;;;;43.53;27.30;;;0.60;99.90;;;;;;5020567;28;20188;-43
2023/02/16 07:01:58;;;;;;;37.00;25.10;;;0.70;99.90;;;;;;5020842;28;20643;-42
2023/02/16 07:04:23;;;;;;;43.67;27.73;;;0.70;99.90;;;;;;5020171;28;20346;-43
2023/02/16 07:06:49;;;;;;;43.33;27.13;;;0.70;99.90;;;;;;5020620;28;20196;-45
2023/02/16 07:09:15;;;;;;;40.37;27.20;;;0.70;99.90;;;;;;5020200;28;20184;-43
2023/02/16 07:11:40;;;;;;;42.80;25.30;;;0.80;99.90;;;;;;5019819;28;20306;-43
2023/02/16 07:14:06;;;;;;;42.27;25.30;;;0.80;99.90;;;;;;5019529;28;20188;-43
2023/02/16 07:16:32;;;;;;;39.40;25.80;;;0.80;99.90;;;;;;5019834;28;20189;-44
2023/02/16 07:18:58;;;;;;;41.60;27.00;;;0.90;99.90;;;;;;5019825;28;21019;-45
2023/02/16 07:21:24;;;;;;;34.72;25.35;;;0.90;99.90;;;;;;5020281;28;20422;-44
2023/02/16 07:23:49;;;;;;;36.87;25.63;;;0.90;99.90;;;;;;5018604;28;20247;-43
2023/02/16 07:26:15;;;;;;;31.63;24.00;;;0.90;99.90;;;;;;5020020;28;20247;-45
2023/02/16 07:28:40;;;;;;;36.13;24.60;;;1.00;99.90;;;;;;5020187;28;20856;-44
2023/02/16 07:31:12;;;;;;;37.97;25.50;;;1.00;99.90;;;;;;5019817;28;20193;-43
2023/02/16 07:33:38;;;;;;;34.28;24.63;;;1.00;99.90;;;;;;5020491;28;20617;-43
2023/02/16 07:36:04;;;;;;;31.75;23.85;;;1.10;99.90;;;;;;5020291;28;20726;-46
2023/02/16 07:38:30;;;;;;;39.53;26.00;;;1.10;99.90;;;;;;5020221;28;20251;-46
2023/02/16 07:40:56;;;;;;;36.50;26.13;;;1.10;99.90;;;;;;5018876;28;20550;-43
2023/02/16 07:43:23;;;;;;;33.05;23.73;;;1.10;99.90;;;;;;5019742;28;20223;-45
2023/02/16 07:45:48;;;;;;;34.92;23.95;;;1.10;99.90;;;;;;5018140;28;20173;-44
2023/02/16 07:48:14;;;;;;;35.57;24.43;;;1.20;99.90;;;;;;5018878;28;20215;-45
2023/02/16 07:50:40;;;;;;;38.83;24.97;;;1.30;99.90;;;;;;5020128;28;20411;-44
2023/02/16 07:53:06;;;;;;;35.23;25.37;;;1.30;99.90;;;;;;5019631;28;20476;-48
2023/02/16 07:55:32;;;;;;;35.17;24.58;;;1.30;99.90;;;;;;5019592;28;20193;-44
2023/02/16 07:57:59;;;;;;;33.40;24.67;;;1.30;99.90;;;;;;5019693;28;20198;-44
2023/02/16 08:00:25;;;;;;;36.65;25.60;;;1.40;99.90;;;;;;5018062;28;20188;-44
2023/02/16 08:02:51;;;;;;;35.95;25.00;;;1.50;99.90;;;;;;5019277;28;20221;-43
2023/02/16 08:05:17;;;;;;;34.03;24.37;;;1.60;99.90;;;;;;5019564;28;20485;-45
2023/02/16 08:07:43;;;;;;;36.33;25.10;;;1.80;99.90;;;;;;5019146;28;20468;-44
2023/02/16 08:10:11;;;;;;;34.15;24.85;;;1.90;99.90;;;;;;5019139;28;20495;-46
2023/02/16 08:12:37;;;;;;;31.92;25.02;;;2.10;99.90;;;;;;5019361;28;20312;-47
2023/02/16 08:15:03;;;;;;;33.00;25.80;;;2.30;99.90;;;;;;5018539;28;20189;-47
2023/02/16 08:17:29;;;;;;;31.67;23.90;;;2.60;99.90;;;;;;5019213;28;20204;-45
2023/02/16 08:19:54;;;;;;;31.23;24.20;;;3.00;99.90;;;;;;5017809;28;20194;-45
2023/02/16 08:22:20;;;;;;;31.90;22.17;;;3.40;99.90;;;;;;5019004;28;20197;-48
2023/02/16 08:24:46;;;;;;;28.13;23.20;;;3.40;99.90;;;;;;5022135;28;20196;-46
2023/02/16 08:27:11;;;;;;;27.70;22.23;;;3.70;99.90;;;;;;5023135;28;20213;-44
2023/02/16 08:29:37;;;;;;;27.20;22.90;;;4.50;99.90;;;;;;5023390;28;20698;-42
2023/02/16 08:32:06;;;;;;;29.43;22.53;;;4.80;99.90;;;;;;5023746;28;20220;-44
2023/02/16 08:34:33;;;;;;;27.63;22.63;;;4.50;99.90;;;;;;5023357;28;20175;-43
2023/02/16 08:36:59;;;;;;;25.60;22.88;;;4.70;99.90;;;;;;5021653;28;20201;-45
2023/02/16 08:39:27;;;;;;;25.92;22.02;;;5.00;99.90;;;;;;5023314;28;20188;-43
2023/02/16 08:41:54;;;;;;;26.30;22.98;;;5.50;99.90;;;;;;5023163;28;20239;-43
2023/02/16 08:44:21;;;;;;;25.23;22.58;;;6.00;99.90;;;;;;5021653;28;20270;-44
2023/02/16 08:46:48;;;;;;;25.63;22.38;;;6.00;99.90;;;;;;5022756;28;20308;-45
2023/02/16 08:49:17;;;;;;;23.67;21.15;;;6.30;99.90;;;;;;5022697;28;20174;-43
2023/02/16 08:51:46;;;;;;;24.80;21.43;;;6.70;99.90;;;;;;5023083;28;20243;-42
2023/02/16 08:54:27;;;;;;;25.90;22.20;;;6.90;99.90;;;;;;5022918;28;20496;-47
2023/02/16 08:56:54;;;;;;;29.07;23.90;;;7.40;99.90;;;;;;5023268;28;20409;-43
2023/02/16 08:59:21;;;;;;;26.33;23.53;;;7.10;99.90;;;;;;5023374;28;20474;-45
2023/02/16 09:01:47;;;;;;;25.87;23.07;;;7.00;99.90;;;;;;5023296;28;20948;-43
2023/02/16 09:04:14;;;;;;;31.00;24.73;;;7.40;99.90;;;;;;5021354;28;20437;-43
2023/02/16 09:06:42;;;;;;;26.43;23.80;;;7.60;99.90;;;;;;5023159;28;20518;-45
2023/02/16 09:09:08;;;;;;;26.17;23.30;;;7.70;98.70;;;;;;5022575;28;20415;-42
2023/02/16 09:11:35;;;;;;;26.93;24.23;;;8.00;99.60;;;;;;5022524;28;20472;-44
2023/02/16 09:14:01;;;;;;;27.27;24.57;;;8.40;97.80;;;;;;5021892;28;20443;-44
2023/02/16 09:16:28;;;;;;;28.40;25.50;;;8.60;97.20;;;;;;5022594;28;20692;-44
2023/02/16 09:18:56;;;;;;;25.67;23.10;;;9.00;95.70;;;;;;5022094;28;20427;-43
2023/02/16 09:21:24;;;;;;;28.33;25.47;;;8.90;94.70;;;;;;5022401;28;20435;-42
2023/02/16 09:23:53;;;;;;;27.90;24.93;;;8.70;93.90;;;;;;5022318;28;20426;-43
2023/02/16 09:26:21;;;;;;;28.37;25.47;;;8.70;94.20;;;;;;5022443;28;20429;-46
2023/02/16 09:28:48;;;;;;;27.03;24.20;;;8.70;93.60;;;;;;5022499;28;20829;-43
2023/02/16 09:31:25;;;;;;;27.47;24.87;;;9.00;94.70;;;;;;5022059;28;20423;-43
2023/02/16 09:33:55;;;;;;;27.73;24.83;;;9.50;94.50;;;;;;5021711;28;20938;-48
2023/02/16 09:36:21;;;;;;;27.20;24.40;;;9.80;91.70;;;;;;5022023;28;20416;-45
2023/02/16 09:38:47;;;;;;;29.27;26.20;;;9.50;92.30;;;;;;5022022;28;20423;-47
2023/02/16 09:41:27;;;;;;;28.30;25.27;;;9.90;91.70;;;;;;5021695;28;20488;-46
2023/02/16 09:44:14;;;;;;;27.03;24.17;;;10.50;90.50;;;;;;5020183;28;20484;-43
2023/02/16 09:46:41;;;;;;;28.30;25.30;;;11.00;84.60;;;;;;5021439;28;20468;-46
2023/02/16 09:49:39;;;;;;;29.57;26.57;;;10.50;81.70;;;;;;5021748;28;20841;-46
2023/02/16 09:52:27;;;;;;;27.80;25.00;;;11.00;83.40;;;;;;5020038;28;20432;-51
2023/02/16 09:54:56;;;;;;;28.77;25.87;;;11.30;79.70;;;;;;5022174;28;20440;-45
2023/02/16 09:57:25;;;;;;;28.00;25.30;;;11.50;76.50;;;;;;5021856;28;20504;-50
2023/02/16 09:59:55;;;;;;;28.23;25.20;;;11.70;75.30;;;;;;5021502;28;20898;-43
2023/02/16 10:02:39;;;;;;;27.20;24.67;;;11.60;72.40;;;;;;5021043;28;20421;-44
2023/02/16 10:05:16;;;;;;;29.10;26.13;;;11.20;74.30;;;;;;5021757;28;20505;-48
2023/02/16 10:08:08;;;;;;;28.33;25.53;;;10.80;76.60;;;;;;5021470;28;20468;-45
2023/02/16 10:10:39;;;;;;;29.07;26.27;;;11.40;79.10;;;;;;5020878;28;20411;-44
2023/02/16 10:13:20;;;;;;;27.87;25.17;;;12.00;76.40;;;;;;5020683;28;20464;-46
2023/02/16 10:15:49;;;;;;;31.43;28.43;;;12.60;74.40;;;;;;5020445;28;20450;-49
2023/02/16 10:18:32;;;;;;;29.13;26.30;;;13.10;67.00;;;;;;5021322;28;20409;-45
2023/02/16 10:21:01;;;;;;;28.80;26.00;;;13.80;63.90;;;;;;5021071;28;20431;-49
2023/02/16 10:23:52;;;;;;;31.40;28.07;;;14.60;61.00;;;;;;5021256;28;20484;-49
2023/02/16 10:26:28;;;;;;;29.83;26.87;;;15.00;55.10;;;;;;5021137;28;20421;-50
2023/02/16 10:28:57;;;;;;;30.30;27.30;;;14.50;54.20;;;;;;5021048;28;20478;-46
2023/02/16 10:31:23;;;;;;;28.73;25.93;;;14.40;53.90;;;;;;5021051;28;20747;-49
2023/02/16 10:34:32;;;;;;;28.07;25.43;;;14.50;54.10;;;;;;5021279;28;20880;-45
2023/02/16 10:37:31;;;;;;;29.77;26.83;;;14.60;53.50;;;;;;5001280;28;20669;-46
2023/02/16 10:40:15;;;;;;;29.60;26.80;;;14.10;51.60;;;;;;5020673;28;20433;-46
2023/02/16 10:42:59;;;;;;;27.47;24.87;;;14.50;52.80;;;;;;5020796;28;20923;-45
2023/02/16 10:45:37;;;;;;;30.13;27.00;;;14.70;52.60;;;;;;5020553;28;20425;-44
2023/02/16 10:48:03;;;;;;;28.53;25.73;;;14.90;51.80;;;;;;5019962;28;21212;-47
2023/02/16 10:50:40;;;;;;;29.90;26.97;;;15.70;52.10;;;;;;5019116;28;20433;-45
2023/02/16 10:53:23;;;;;;;30.57;27.63;;;16.10;50.70;;;;;;5021346;28;20421;-46
2023/02/16 10:55:48;;;;;;;30.27;27.23;;;16.20;48.70;;;;;;5020636;28;20460;-51
2023/02/16 10:58:25;;;;;;;30.20;27.10;;;15.80;46.60;;;;;;5020850;28;20881;-45
2023/02/16 11:01:20;;;;;;;28.63;26.03;;;16.10;47.50;;;;;;5020925;28;20174;-45
2023/02/16 11:03:51;;;;;;;29.47;26.67;;;16.60;48.10;;;;;;5020353;28;20814;-46
2023/02/16 11:06:20;;;;;;;29.57;26.60;;;17.10;46.30;;;;;;5020131;28;20417;-44
2023/02/16 11:08:56;;;;;;;28.63;26.03;;;17.40;46.00;;;;;;5019405;28;20495;-46
2023/02/16 11:11:25;;;;;;;28.63;26.03;;;17.80;45.90;;;;;;5020222;28;20492;-46
2023/02/16 11:13:58;;;;;;;29.00;26.27;;;18.20;44.00;;;;;;5019715;28;20499;-45
2023/02/16 11:16:25;;;;;;;29.33;26.63;;;18.40;42.90;;;;;;5019368;28;20658;-46
2023/02/16 11:19:05;;;;;;;28.67;26.17;;;18.50;41.70;;;;;;5018387;28;20460;-48
2023/02/16 11:21:49;;;;;;;28.70;26.13;;;18.70;41.20;;;;;;5019878;28;20831;-45
2023/02/16 11:24:27;;;;;;;28.93;26.23;;;18.70;41.10;;;;;;5020454;28;20487;-46
2023/02/16 11:27:02;;;;;;;29.40;26.83;;;18.80;40.70;;;;;;5019904;28;20526;-45
2023/02/16 11:29:28;;;;;;;30.13;27.33;;;19.00;39.30;;;;;;5020246;28;20424;-47
2023/02/16 11:31:55;;;;;;;29.67;27.03;;;18.70;39.10;;;;;;5020061;28;20429;-48
2023/02/16 11:34:41;;;;;;;29.90;27.10;;;18.60;38.60;;;;;;5019560;28;20459;-47
2023/02/16 11:37:25;;;;;;;29.10;26.60;;;18.70;40.00;;;;;;5019597;28;20429;-46
2023/02/16 11:39:58;;;;;;;29.73;27.13;;;19.00;38.90;;;;;;5020011;28;20435;-44
2023/02/16 11:42:30;;;;;;;29.73;27.03;;;18.40;38.00;;;;;;5019771;28;20424;-51
2023/02/16 11:44:58;;;;;;;29.53;26.73;;;18.60;40.10;;;;;;5019822;28;20425;-44
2023/02/16 11:47:39;;;;;;;30.20;27.43;;;18.90;39.60;;;;;;5018787;28;20522;-45
2023/02/16 11:50:19;;;;;;;30.10;27.50;;;19.20;39.20;;;;;;5019659;28;20432;-48
2023/02/16 11:52:51;;;;;;;28.37;25.73;;;19.00;37.00;;;;;;5019615;28;20443;-46
2023/02/16 11:55:25;;;;;;;30.80;28.20;;;19.30;37.70;;;;;;5019799;28;20880;-50
2023/02/16 11:57:51;;;;;;;28.97;26.37;;;19.60;36.70;;;;;;5019749;28;21278;-50
2023/02/16 12:00:21;;;;;;;27.40;24.90;;;19.60;36.80;;;;;;5019918;28;21152;-49
2023/02/16 12:03:09;;;;;;;28.90;26.50;;;19.70;36.90;;;;;;5019462;28;20429;-47
2023/02/16 12:06:01;;;;;;;31.00;28.30;;;20.10;36.90;;;;;;5019590;28;20440;-47
2023/02/16 12:08:32;;;;;;;29.57;26.87;;;20.20;36.90;;;;;;5019116;28;20850;-46
2023/02/16 12:11:16;;;;;;;28.07;25.53;;;20.20;36.40;;;;;;5019570;28;20719;-44
2023/02/16 12:13:53;;;;;;;30.43;27.73;;;20.60;35.10;;;;;;5019478;28;20927;-45
2023/02/16 12:16:42;;;;;;;29.53;26.90;;;20.70;34.60;;;;;;5019161;28;20422;-44
2023/02/16 12:19:26;;;;;;;30.53;27.83;;;21.00;34.70;;;;;;5017955;28;20518;-43
2023/02/16 12:22:17;;;;;;;30.93;28.30;;;21.20;34.30;;;;;;5019780;28;20409;-41
2023/02/16 12:25:01;;;;;;;29.30;26.70;;;21.50;34.60;;;;;;5019274;28;20912;-50
2023/02/16 12:27:41;;;;;;;29.87;27.33;;;21.50;32.90;;;;;;5019047;28;20469;-46
2023/02/16 12:30:10;;;;;;;29.37;26.87;;;21.60;32.20;;;;;;5019196;28;20916;-43
2023/02/16 12:33:05;;;;;;;30.80;28.10;;;21.70;33.00;;;;;;5019145;28;20420;-45
2023/02/16 12:35:52;;;;;;;27.80;25.30;;;21.00;33.70;;;;;;5019352;28;20765;-44
2023/02/16 12:38:27;;;;;;;30.30;27.73;;;21.00;33.30;;;;;;5018499;28;20433;-44
2023/02/16 12:41:11;;;;;;;31.20;28.60;;;21.00;33.00;;;;;;5020069;28;20432;-43
2023/02/16 12:43:51;;;;;;;29.90;27.03;;;21.10;32.90;;;;;;5019391;28;20896;-43
2023/02/16 12:46:29;;;;;;;31.43;28.63;;;20.00;33.30;;;;;;5019270;28;20482;-48
2023/02/16 12:49:03;;;;;;;31.43;28.43;;;19.60;34.30;;;;;;5019114;28;20421;-46
2023/02/16 12:51:44;;;;;;;33.83;30.70;;;19.20;35.20;;;;;;5018996;28;20459;-45
2023/02/16 12:54:22;;;;;;;32.43;29.43;;;18.70;36.60;;;;;;5018855;28;20417;-46
2023/02/16 12:57:08;;;;;;;33.03;29.90;;;18.00;37.60;;;;;;5018950;28;20903;-44
2023/02/16 12:59:45;;;;;;;33.20;30.10;;;16.90;37.70;;;;;;5019120;28;20743;-43
2023/02/16 13:02:21;;;;;;;31.60;28.60;;;15.30;39.60;;;;;;5018701;28;20991;-42
2023/02/16 13:04:59;;;;;;;31.57;28.67;;;15.60;43.00;;;;;;5019592;28;20447;-43
2023/02/16 13:07:30;;;;;;;31.20;28.23;;;16.20;42.70;;;;;;5018917;28;20526;-42
2023/02/16 13:10:31;;;;;;;32.03;28.83;;;15.60;42.20;;;;;;5020699;28;20520;-43
2023/02/16 13:13:12;;;;;;;31.00;28.03;;;16.10;43.70;;;;;;5019862;28;20510;-43
2023/02/16 13:15:59;;;;;;;32.73;29.43;;;15.70;42.70;;;;;;5022547;28;20903;-44
2023/02/16 13:18:39;;;;;;;33.20;29.73;;;15.20;43.70;;;;;;5022276;28;20490;-46
2023/02/16 13:21:14;;;;;;;33.33;29.93;;;14.80;45.10;;;;;;5022273;28;20463;-45
2023/02/16 13:24:07;;;;;;;33.67;30.23;;;14.40;45.80;;;;;;5022151;28;20420;-43
2023/02/16 13:26:41;;;;;;;33.17;29.97;;;14.60;46.60;;;;;;5021952;28;20471;-43
2023/02/16 13:29:28;;;;;;;33.47;29.93;;;14.60;46.10;;;;;;5022262;28;20437;-45
2023/02/16 13:32:06;;;;;;;32.03;28.73;;;14.20;47.10;;;;;;5022289;28;20461;-42
2023/02/16 13:35:20;;;;;;;32.37;29.17;;;14.60;47.60;;;;;;5022559;28;20413;-42
2023/02/16 13:38:00;;;;;;;31.80;28.77;;;14.60;47.70;;;;;;5004822;28;20433;-42